sensor_id;sensor_type;location;lat;lon;timestamp;P1;durP1;ratioP1;P2;durP2;ratioP2
19828;SDS011;10075;50.924;4.396;2022-08-19T00:01:13;27.60;;;24.38;;
19828;SDS011;10075;50.924;4.396;2022-08-19T00:03:40;30.25;;;25.77;;
19828;SDS011;10075;50.924;4.396;2022-08-19T00:06:08;28.08;;;25.05;;
19828;SDS011;10075;50.924;4.396;2022-08-19T00:08:35;33.65;;;26.73;;
19828;SDS011;10075;50.924;4.396;2022-08-19T00:11:02;33.63;;;26.67;;
19828;SDS011;10075;50.924;4.396;2022-08-19T00:13:30;30.45;;;27.20;;
19828;SDS011;10075;50.924;4.396;2022-08-19T00:15:57;32.67;;;27.88;;
19828;SDS011;10075;50.924;4.396;2022-08-19T00:18:26;31.73;;;28.20;;
19828;SDS011;10075;50.924;4.396;2022-08-19T00:20:53;34.60;;;28.58;;
19828;SDS011;10075;50.924;4.396;2022-08-19T00:23:21;38.17;;;30.17;;
19828;SDS011;10075;50.924;4.396;2022-08-19T00:25:48;40.35;;;31.67;;
19828;SDS011;10075;50.924;4.396;2022-08-19T00:28:15;43.78;;;34.33;;
19828;SDS011;10075;50.924;4.396;2022-08-19T00:30:42;40.90;;;33.92;;
19828;SDS011;10075;50.924;4.396;2022-08-19T00:33:09;42.35;;;32.75;;
19828;SDS011;10075;50.924;4.396;2022-08-19T00:35:36;45.20;;;34.20;;
19828;SDS011;10075;50.924;4.396;2022-08-19T00:38:03;50.08;;;36.78;;
19828;SDS011;10075;50.924;4.396;2022-08-19T00:40:33;40.47;;;33.63;;
19828;SDS011;10075;50.924;4.396;2022-08-19T00:43:00;42.70;;;34.67;;
19828;SDS011;10075;50.924;4.396;2022-08-19T00:45:27;49.88;;;38.28;;
19828;SDS011;10075;50.924;4.396;2022-08-19T00:47:57;56.92;;;41.42;;
19828;SDS011;10075;50.924;4.396;2022-08-19T00:50:28;61.15;;;44.10;;
19828;SDS011;10075;50.924;4.396;2022-08-19T00:52:55;64.57;;;43.03;;
19828;SDS011;10075;50.924;4.396;2022-08-19T00:55:23;58.30;;;41.42;;
19828;SDS011;10075;50.924;4.396;2022-08-19T00:57:55;63.28;;;44.78;;
19828;SDS011;10075;50.924;4.396;2022-08-19T01:00:24;68.18;;;44.60;;
19828;SDS011;10075;50.924;4.396;2022-08-19T01:02:53;63.42;;;44.20;;
19828;SDS011;10075;50.924;4.396;2022-08-19T01:05:21;66.70;;;45.80;;
19828;SDS011;10075;50.924;4.396;2022-08-19T01:07:52;60.38;;;42.17;;
19828;SDS011;10075;50.924;4.396;2022-08-19T01:10:21;66.00;;;44.95;;
19828;SDS011;10075;50.924;4.396;2022-08-19T01:12:51;61.20;;;44.13;;
19828;SDS011;10075;50.924;4.396;2022-08-19T01:15:22;67.18;;;46.22;;
19828;SDS011;10075;50.924;4.396;2022-08-19T01:17:51;70.90;;;47.67;;
19828;SDS011;10075;50.924;4.396;2022-08-19T01:20:20;71.60;;;47.55;;
19828;SDS011;10075;50.924;4.396;2022-08-19T01:22:50;66.15;;;47.05;;
19828;SDS011;10075;50.924;4.396;2022-08-19T01:25:20;71.32;;;46.55;;
19828;SDS011;10075;50.924;4.396;2022-08-19T01:27:50;71.22;;;46.88;;
19828;SDS011;10075;50.924;4.396;2022-08-19T01:30:20;72.35;;;47.90;;
19828;SDS011;10075;50.924;4.396;2022-08-19T01:32:50;67.43;;;46.05;;
19828;SDS011;10075;50.924;4.396;2022-08-19T01:35:17;67.32;;;45.63;;
19828;SDS011;10075;50.924;4.396;2022-08-19T01:37:46;66.78;;;45.33;;
19828;SDS011;10075;50.924;4.396;2022-08-19T01:40:19;66.60;;;44.88;;
19828;SDS011;10075;50.924;4.396;2022-08-19T01:42:48;71.03;;;46.33;;
19828;SDS011;10075;50.924;4.396;2022-08-19T01:45:15;72.03;;;47.10;;
19828;SDS011;10075;50.924;4.396;2022-08-19T01:47:43;71.45;;;49.63;;
19828;SDS011;10075;50.924;4.396;2022-08-19T01:50:10;64.75;;;45.17;;
19828;SDS011;10075;50.924;4.396;2022-08-19T01:52:38;65.40;;;44.67;;
19828;SDS011;10075;50.924;4.396;2022-08-19T01:55:07;67.82;;;43.67;;
19828;SDS011;10075;50.924;4.396;2022-08-19T01:57:39;64.18;;;44.92;;
19828;SDS011;10075;50.924;4.396;2022-08-19T02:00:10;63.10;;;44.03;;
19828;SDS011;10075;50.924;4.396;2022-08-19T02:02:40;59.55;;;41.10;;
19828;SDS011;10075;50.924;4.396;2022-08-19T02:05:07;64.15;;;43.83;;
19828;SDS011;10075;50.924;4.396;2022-08-19T02:07:35;65.38;;;43.78;;
19828;SDS011;10075;50.924;4.396;2022-08-19T02:10:02;58.22;;;40.17;;
19828;SDS011;10075;50.924;4.396;2022-08-19T02:12:30;59.92;;;40.63;;
19828;SDS011;10075;50.924;4.396;2022-08-19T02:14:58;62.03;;;41.85;;
19828;SDS011;10075;50.924;4.396;2022-08-19T02:17:26;55.08;;;37.53;;
19828;SDS011;10075;50.924;4.396;2022-08-19T02:19:54;55.20;;;38.50;;
19828;SDS011;10075;50.924;4.396;2022-08-19T02:22:21;50.70;;;37.70;;
19828;SDS011;10075;50.924;4.396;2022-08-19T02:24:50;42.70;;;33.45;;
19828;SDS011;10075;50.924;4.396;2022-08-19T02:27:17;49.35;;;32.03;;
19828;SDS011;10075;50.924;4.396;2022-08-19T02:29:45;39.30;;;28.70;;
19828;SDS011;10075;50.924;4.396;2022-08-19T02:32:14;40.00;;;28.30;;
19828;SDS011;10075;50.924;4.396;2022-08-19T02:34:41;41.95;;;29.90;;
19828;SDS011;10075;50.924;4.396;2022-08-19T02:37:08;39.15;;;28.85;;
19828;SDS011;10075;50.924;4.396;2022-08-19T02:39:55;34.75;;;26.15;;
19828;SDS011;10075;50.924;4.396;2022-08-19T02:42:21;34.85;;;25.83;;
19828;SDS011;10075;50.924;4.396;2022-08-19T02:44:48;35.28;;;26.17;;
19828;SDS011;10075;50.924;4.396;2022-08-19T02:47:18;36.70;;;25.13;;
19828;SDS011;10075;50.924;4.396;2022-08-19T02:49:45;39.03;;;27.65;;
19828;SDS011;10075;50.924;4.396;2022-08-19T02:52:14;38.03;;;28.15;;
19828;SDS011;10075;50.924;4.396;2022-08-19T02:54:41;39.50;;;26.98;;
19828;SDS011;10075;50.924;4.396;2022-08-19T02:57:08;31.75;;;24.35;;
19828;SDS011;10075;50.924;4.396;2022-08-19T02:59:35;31.85;;;22.15;;
19828;SDS011;10075;50.924;4.396;2022-08-19T03:02:02;33.70;;;25.73;;
19828;SDS011;10075;50.924;4.396;2022-08-19T03:04:31;35.42;;;25.48;;
19828;SDS011;10075;50.924;4.396;2022-08-19T03:06:58;31.52;;;24.15;;
19828;SDS011;10075;50.924;4.396;2022-08-19T03:09:24;33.30;;;24.77;;
19828;SDS011;10075;50.924;4.396;2022-08-19T03:11:51;35.58;;;26.42;;
19828;SDS011;10075;50.924;4.396;2022-08-19T03:14:18;37.25;;;25.67;;
19828;SDS011;10075;50.924;4.396;2022-08-19T03:16:47;37.85;;;26.63;;
19828;SDS011;10075;50.924;4.396;2022-08-19T03:19:16;33.20;;;25.65;;
19828;SDS011;10075;50.924;4.396;2022-08-19T03:21:46;35.75;;;25.73;;
19828;SDS011;10075;50.924;4.396;2022-08-19T03:24:13;29.17;;;21.50;;
19828;SDS011;10075;50.924;4.396;2022-08-19T03:26:41;33.47;;;24.05;;
19828;SDS011;10075;50.924;4.396;2022-08-19T03:29:09;36.05;;;24.80;;
19828;SDS011;10075;50.924;4.396;2022-08-19T03:31:37;38.30;;;26.63;;
19828;SDS011;10075;50.924;4.396;2022-08-19T03:34:06;38.05;;;25.30;;
19828;SDS011;10075;50.924;4.396;2022-08-19T03:36:33;31.17;;;24.42;;
19828;SDS011;10075;50.924;4.396;2022-08-19T03:39:01;35.40;;;24.45;;
19828;SDS011;10075;50.924;4.396;2022-08-19T03:41:29;39.53;;;25.77;;
19828;SDS011;10075;50.924;4.396;2022-08-19T03:43:58;35.17;;;24.58;;
19828;SDS011;10075;50.924;4.396;2022-08-19T03:46:26;37.17;;;24.02;;
19828;SDS011;10075;50.924;4.396;2022-08-19T03:48:55;33.55;;;23.35;;
19828;SDS011;10075;50.924;4.396;2022-08-19T03:51:26;31.60;;;24.35;;
19828;SDS011;10075;50.924;4.396;2022-08-19T03:53:55;31.95;;;22.85;;
19828;SDS011;10075;50.924;4.396;2022-08-19T03:56:24;37.15;;;24.98;;
19828;SDS011;10075;50.924;4.396;2022-08-19T03:58:52;34.03;;;23.10;;
19828;SDS011;10075;50.924;4.396;2022-08-19T04:01:22;34.40;;;23.45;;
19828;SDS011;10075;50.924;4.396;2022-08-19T04:03:51;34.42;;;22.63;;
19828;SDS011;10075;50.924;4.396;2022-08-19T04:06:19;31.83;;;22.88;;
19828;SDS011;10075;50.924;4.396;2022-08-19T04:08:48;30.42;;;21.50;;
19828;SDS011;10075;50.924;4.396;2022-08-19T04:11:18;33.85;;;23.60;;
19828;SDS011;10075;50.924;4.396;2022-08-19T04:13:49;32.47;;;21.77;;
19828;SDS011;10075;50.924;4.396;2022-08-19T04:16:16;29.67;;;21.48;;
19828;SDS011;10075;50.924;4.396;2022-08-19T04:18:44;32.28;;;20.70;;
19828;SDS011;10075;50.924;4.396;2022-08-19T04:21:15;28.70;;;19.73;;
19828;SDS011;10075;50.924;4.396;2022-08-19T04:23:43;37.28;;;21.05;;
19828;SDS011;10075;50.924;4.396;2022-08-19T04:26:12;31.35;;;20.83;;
19828;SDS011;10075;50.924;4.396;2022-08-19T04:28:41;30.48;;;20.70;;
19828;SDS011;10075;50.924;4.396;2022-08-19T04:31:13;25.05;;;19.08;;
19828;SDS011;10075;50.924;4.396;2022-08-19T04:33:41;33.13;;;20.75;;
19828;SDS011;10075;50.924;4.396;2022-08-19T04:36:15;33.03;;;20.17;;
19828;SDS011;10075;50.924;4.396;2022-08-19T04:38:45;32.47;;;19.65;;
19828;SDS011;10075;50.924;4.396;2022-08-19T04:41:12;32.97;;;20.10;;
19828;SDS011;10075;50.924;4.396;2022-08-19T04:43:57;27.98;;;17.65;;
19828;SDS011;10075;50.924;4.396;2022-08-19T04:46:26;32.33;;;21.55;;
19828;SDS011;10075;50.924;4.396;2022-08-19T04:48:55;33.65;;;20.25;;
19828;SDS011;10075;50.924;4.396;2022-08-19T04:51:22;32.75;;;20.00;;
19828;SDS011;10075;50.924;4.396;2022-08-19T04:53:50;28.88;;;19.00;;
19828;SDS011;10075;50.924;4.396;2022-08-19T04:56:18;28.92;;;17.83;;
19828;SDS011;10075;50.924;4.396;2022-08-19T04:58:47;31.05;;;18.48;;
19828;SDS011;10075;50.924;4.396;2022-08-19T05:01:17;25.10;;;18.17;;
19828;SDS011;10075;50.924;4.396;2022-08-19T05:03:47;28.33;;;18.02;;
19828;SDS011;10075;50.924;4.396;2022-08-19T05:06:15;30.25;;;18.88;;
19828;SDS011;10075;50.924;4.396;2022-08-19T05:08:44;27.70;;;19.83;;
19828;SDS011;10075;50.924;4.396;2022-08-19T05:11:12;30.55;;;18.13;;
19828;SDS011;10075;50.924;4.396;2022-08-19T05:13:41;28.42;;;17.90;;
19828;SDS011;10075;50.924;4.396;2022-08-19T05:16:09;27.45;;;18.08;;
19828;SDS011;10075;50.924;4.396;2022-08-19T05:18:37;26.65;;;17.88;;
19828;SDS011;10075;50.924;4.396;2022-08-19T05:21:24;30.08;;;19.00;;
19828;SDS011;10075;50.924;4.396;2022-08-19T05:24:23;24.90;;;16.02;;
19828;SDS011;10075;50.924;4.396;2022-08-19T05:26:51;15.38;;;11.70;;
19828;SDS011;10075;50.924;4.396;2022-08-19T05:29:21;24.00;;;14.43;;
19828;SDS011;10075;50.924;4.396;2022-08-19T05:31:50;25.33;;;15.63;;
19828;SDS011;10075;50.924;4.396;2022-08-19T05:34:17;25.30;;;15.60;;
19828;SDS011;10075;50.924;4.396;2022-08-19T05:36:49;24.73;;;15.07;;
19828;SDS011;10075;50.924;4.396;2022-08-19T05:39:22;24.15;;;15.52;;
19828;SDS011;10075;50.924;4.396;2022-08-19T05:41:51;22.25;;;15.25;;
19828;SDS011;10075;50.924;4.396;2022-08-19T05:44:22;26.27;;;15.25;;
19828;SDS011;10075;50.924;4.396;2022-08-19T05:46:49;24.60;;;15.32;;
19828;SDS011;10075;50.924;4.396;2022-08-19T05:49:18;23.63;;;13.95;;
19828;SDS011;10075;50.924;4.396;2022-08-19T05:51:48;23.25;;;14.65;;
19828;SDS011;10075;50.924;4.396;2022-08-19T05:54:16;22.83;;;14.45;;
19828;SDS011;10075;50.924;4.396;2022-08-19T05:56:43;27.63;;;14.68;;
19828;SDS011;10075;50.924;4.396;2022-08-19T05:59:13;21.35;;;13.95;;
19828;SDS011;10075;50.924;4.396;2022-08-19T06:01:42;19.70;;;13.57;;
19828;SDS011;10075;50.924;4.396;2022-08-19T06:04:10;21.50;;;14.50;;
19828;SDS011;10075;50.924;4.396;2022-08-19T06:06:38;26.23;;;14.30;;
19828;SDS011;10075;50.924;4.396;2022-08-19T06:09:07;19.90;;;12.95;;
19828;SDS011;10075;50.924;4.396;2022-08-19T06:11:36;21.80;;;13.77;;
19828;SDS011;10075;50.924;4.396;2022-08-19T06:14:05;22.80;;;13.65;;
19828;SDS011;10075;50.924;4.396;2022-08-19T06:16:34;25.05;;;13.88;;
19828;SDS011;10075;50.924;4.396;2022-08-19T06:19:03;19.75;;;13.52;;
19828;SDS011;10075;50.924;4.396;2022-08-19T06:21:32;18.48;;;12.32;;
19828;SDS011;10075;50.924;4.396;2022-08-19T06:24:02;16.63;;;12.20;;
19828;SDS011;10075;50.924;4.396;2022-08-19T06:26:32;17.92;;;12.60;;
19828;SDS011;10075;50.924;4.396;2022-08-19T06:29:00;19.13;;;11.40;;
19828;SDS011;10075;50.924;4.396;2022-08-19T06:31:29;19.55;;;12.25;;
19828;SDS011;10075;50.924;4.396;2022-08-19T06:33:59;18.15;;;11.23;;
19828;SDS011;10075;50.924;4.396;2022-08-19T06:36:29;20.38;;;12.18;;
19828;SDS011;10075;50.924;4.396;2022-08-19T06:38:59;17.63;;;9.05;;
19828;SDS011;10075;50.924;4.396;2022-08-19T06:41:27;15.05;;;10.82;;
19828;SDS011;10075;50.924;4.396;2022-08-19T06:43:56;16.55;;;10.05;;
19828;SDS011;10075;50.924;4.396;2022-08-19T06:46:23;14.38;;;9.00;;
19828;SDS011;10075;50.924;4.396;2022-08-19T06:48:51;12.55;;;7.97;;
19828;SDS011;10075;50.924;4.396;2022-08-19T06:51:20;15.38;;;9.18;;
19828;SDS011;10075;50.924;4.396;2022-08-19T06:53:49;16.48;;;9.77;;
19828;SDS011;10075;50.924;4.396;2022-08-19T06:56:18;13.95;;;9.23;;
19828;SDS011;10075;50.924;4.396;2022-08-19T06:58:46;15.30;;;9.90;;
19828;SDS011;10075;50.924;4.396;2022-08-19T07:01:19;15.98;;;9.75;;
19828;SDS011;10075;50.924;4.396;2022-08-19T07:03:46;12.93;;;9.02;;
19828;SDS011;10075;50.924;4.396;2022-08-19T07:06:15;15.15;;;10.02;;
19828;SDS011;10075;50.924;4.396;2022-08-19T07:08:45;20.30;;;11.00;;
19828;SDS011;10075;50.924;4.396;2022-08-19T07:11:13;16.65;;;10.68;;
19828;SDS011;10075;50.924;4.396;2022-08-19T07:13:42;16.23;;;8.82;;
19828;SDS011;10075;50.924;4.396;2022-08-19T07:16:12;13.73;;;8.40;;
19828;SDS011;10075;50.924;4.396;2022-08-19T07:18:42;13.30;;;7.40;;
19828;SDS011;10075;50.924;4.396;2022-08-19T07:21:11;11.27;;;7.97;;
19828;SDS011;10075;50.924;4.396;2022-08-19T07:23:40;12.15;;;8.00;;
19828;SDS011;10075;50.924;4.396;2022-08-19T07:26:08;13.68;;;8.70;;
19828;SDS011;10075;50.924;4.396;2022-08-19T07:28:37;13.88;;;8.85;;
19828;SDS011;10075;50.924;4.396;2022-08-19T07:31:05;11.50;;;8.52;;
19828;SDS011;10075;50.924;4.396;2022-08-19T07:33:32;14.73;;;8.40;;
19828;SDS011;10075;50.924;4.396;2022-08-19T07:36:03;12.60;;;6.07;;
19828;SDS011;10075;50.924;4.396;2022-08-19T07:38:30;10.05;;;6.28;;
19828;SDS011;10075;50.924;4.396;2022-08-19T07:40:57;8.43;;;5.47;;
19828;SDS011;10075;50.924;4.396;2022-08-19T07:43:25;11.73;;;7.13;;
19828;SDS011;10075;50.924;4.396;2022-08-19T07:45:52;10.70;;;6.32;;
19828;SDS011;10075;50.924;4.396;2022-08-19T07:48:22;11.43;;;7.53;;
19828;SDS011;10075;50.924;4.396;2022-08-19T07:50:50;12.93;;;7.10;;
19828;SDS011;10075;50.924;4.396;2022-08-19T07:53:19;11.13;;;7.03;;
19828;SDS011;10075;50.924;4.396;2022-08-19T07:55:46;9.88;;;5.82;;
19828;SDS011;10075;50.924;4.396;2022-08-19T07:58:14;6.18;;;4.95;;
19828;SDS011;10075;50.924;4.396;2022-08-19T08:00:45;9.57;;;5.78;;
19828;SDS011;10075;50.924;4.396;2022-08-19T08:03:14;10.00;;;6.22;;
19828;SDS011;10075;50.924;4.396;2022-08-19T08:05:43;8.35;;;5.25;;
19828;SDS011;10075;50.924;4.396;2022-08-19T08:08:29;7.75;;;5.20;;
19828;SDS011;10075;50.924;4.396;2022-08-19T08:11:16;8.48;;;5.32;;
19828;SDS011;10075;50.924;4.396;2022-08-19T08:13:45;7.03;;;4.45;;
19828;SDS011;10075;50.924;4.396;2022-08-19T08:16:13;9.70;;;4.78;;
19828;SDS011;10075;50.924;4.396;2022-08-19T08:18:40;7.95;;;4.47;;
19828;SDS011;10075;50.924;4.396;2022-08-19T08:21:08;9.57;;;4.43;;
19828;SDS011;10075;50.924;4.396;2022-08-19T08:23:36;8.43;;;4.53;;
19828;SDS011;10075;50.924;4.396;2022-08-19T08:26:03;8.00;;;4.63;;
19828;SDS011;10075;50.924;4.396;2022-08-19T08:28:30;7.57;;;4.78;;
19828;SDS011;10075;50.924;4.396;2022-08-19T08:30:57;6.95;;;4.47;;
19828;SDS011;10075;50.924;4.396;2022-08-19T08:33:26;9.45;;;4.75;;
19828;SDS011;10075;50.924;4.396;2022-08-19T08:35:55;6.03;;;4.38;;
19828;SDS011;10075;50.924;4.396;2022-08-19T08:38:22;8.55;;;4.15;;
19828;SDS011;10075;50.924;4.396;2022-08-19T08:40:51;9.05;;;6.28;;
19828;SDS011;10075;50.924;4.396;2022-08-19T08:43:27;8.57;;;5.15;;
19828;SDS011;10075;50.924;4.396;2022-08-19T08:45:59;8.57;;;4.97;;
19828;SDS011;10075;50.924;4.396;2022-08-19T08:48:34;7.70;;;4.70;;
19828;SDS011;10075;50.924;4.396;2022-08-19T08:51:09;6.40;;;4.80;;
19828;SDS011;10075;50.924;4.396;2022-08-19T08:53:39;9.20;;;5.28;;
19828;SDS011;10075;50.924;4.396;2022-08-19T08:56:09;9.27;;;5.63;;
19828;SDS011;10075;50.924;4.396;2022-08-19T08:58:41;8.57;;;4.90;;
19828;SDS011;10075;50.924;4.396;2022-08-19T09:01:14;8.30;;;5.93;;
19828;SDS011;10075;50.924;4.396;2022-08-19T09:03:42;8.73;;;5.47;;
19828;SDS011;10075;50.924;4.396;2022-08-19T09:06:12;12.90;;;5.78;;
19828;SDS011;10075;50.924;4.396;2022-08-19T09:08:47;7.95;;;5.63;;
19828;SDS011;10075;50.924;4.396;2022-08-19T09:11:30;8.18;;;5.05;;
19828;SDS011;10075;50.924;4.396;2022-08-19T09:14:15;9.35;;;5.68;;
19828;SDS011;10075;50.924;4.396;2022-08-19T09:16:54;7.57;;;5.03;;
19828;SDS011;10075;50.924;4.396;2022-08-19T09:19:21;7.07;;;4.82;;
19828;SDS011;10075;50.924;4.396;2022-08-19T09:21:48;8.60;;;5.43;;
19828;SDS011;10075;50.924;4.396;2022-08-19T09:24:15;9.88;;;6.22;;
19828;SDS011;10075;50.924;4.396;2022-08-19T09:26:43;8.77;;;5.60;;
19828;SDS011;10075;50.924;4.396;2022-08-19T09:29:11;10.48;;;5.85;;
19828;SDS011;10075;50.924;4.396;2022-08-19T09:31:38;10.20;;;6.13;;
19828;SDS011;10075;50.924;4.396;2022-08-19T09:34:05;10.15;;;5.22;;
19828;SDS011;10075;50.924;4.396;2022-08-19T09:36:33;7.70;;;5.78;;
19828;SDS011;10075;50.924;4.396;2022-08-19T09:39:01;10.38;;;5.60;;
19828;SDS011;10075;50.924;4.396;2022-08-19T09:41:29;9.77;;;5.53;;
19828;SDS011;10075;50.924;4.396;2022-08-19T09:43:58;11.02;;;5.70;;
19828;SDS011;10075;50.924;4.396;2022-08-19T09:46:26;7.07;;;5.20;;
19828;SDS011;10075;50.924;4.396;2022-08-19T09:48:59;8.27;;;5.47;;
19828;SDS011;10075;50.924;4.396;2022-08-19T09:51:26;6.75;;;4.53;;
19828;SDS011;10075;50.924;4.396;2022-08-19T09:53:54;10.80;;;5.10;;
19828;SDS011;10075;50.924;4.396;2022-08-19T09:56:26;7.50;;;4.00;;
19828;SDS011;10075;50.924;4.396;2022-08-19T09:58:53;7.28;;;4.90;;
19828;SDS011;10075;50.924;4.396;2022-08-19T10:01:22;5.78;;;4.18;;
19828;SDS011;10075;50.924;4.396;2022-08-19T10:03:52;8.65;;;4.70;;
19828;SDS011;10075;50.924;4.396;2022-08-19T10:06:22;8.18;;;5.07;;
19828;SDS011;10075;50.924;4.396;2022-08-19T10:08:50;8.85;;;4.50;;
19828;SDS011;10075;50.924;4.396;2022-08-19T10:11:18;6.60;;;4.28;;
19828;SDS011;10075;50.924;4.396;2022-08-19T10:13:46;9.38;;;4.50;;
19828;SDS011;10075;50.924;4.396;2022-08-19T10:16:14;7.97;;;4.43;;
19828;SDS011;10075;50.924;4.396;2022-08-19T10:18:46;5.38;;;4.30;;
19828;SDS011;10075;50.924;4.396;2022-08-19T10:21:14;4.32;;;3.22;;
19828;SDS011;10075;50.924;4.396;2022-08-19T10:23:43;5.90;;;3.97;;
19828;SDS011;10075;50.924;4.396;2022-08-19T10:26:12;4.35;;;3.30;;
19828;SDS011;10075;50.924;4.396;2022-08-19T10:28:41;6.65;;;3.83;;
19828;SDS011;10075;50.924;4.396;2022-08-19T10:31:10;5.78;;;3.78;;
19828;SDS011;10075;50.924;4.396;2022-08-19T10:33:39;5.80;;;3.80;;
19828;SDS011;10075;50.924;4.396;2022-08-19T10:36:10;5.78;;;4.00;;
19828;SDS011;10075;50.924;4.396;2022-08-19T10:38:40;5.15;;;3.40;;
19828;SDS011;10075;50.924;4.396;2022-08-19T10:41:08;6.93;;;3.95;;
19828;SDS011;10075;50.924;4.396;2022-08-19T10:43:37;4.70;;;4.15;;
19828;SDS011;10075;50.924;4.396;2022-08-19T10:46:05;4.78;;;3.78;;
19828;SDS011;10075;50.924;4.396;2022-08-19T10:48:32;6.63;;;4.22;;
19828;SDS011;10075;50.924;4.396;2022-08-19T10:51:00;7.15;;;4.38;;
19828;SDS011;10075;50.924;4.396;2022-08-19T10:53:46;6.63;;;4.25;;
19828;SDS011;10075;50.924;4.396;2022-08-19T10:56:13;8.07;;;4.57;;
19828;SDS011;10075;50.924;4.396;2022-08-19T10:58:58;5.20;;;4.18;;
19828;SDS011;10075;50.924;4.396;2022-08-19T11:01:25;6.63;;;4.38;;
19828;SDS011;10075;50.924;4.396;2022-08-19T11:03:52;6.82;;;4.20;;
19828;SDS011;10075;50.924;4.396;2022-08-19T11:06:19;6.18;;;4.30;;
19828;SDS011;10075;50.924;4.396;2022-08-19T11:08:48;6.93;;;4.32;;
19828;SDS011;10075;50.924;4.396;2022-08-19T11:11:14;9.80;;;5.03;;
19828;SDS011;10075;50.924;4.396;2022-08-19T11:13:42;6.78;;;4.55;;
19828;SDS011;10075;50.924;4.396;2022-08-19T11:16:10;5.82;;;4.00;;
19828;SDS011;10075;50.924;4.396;2022-08-19T11:18:40;7.40;;;3.50;;
19828;SDS011;10075;50.924;4.396;2022-08-19T11:21:10;4.63;;;3.20;;
19828;SDS011;10075;50.924;4.396;2022-08-19T11:23:39;7.43;;;3.47;;
19828;SDS011;10075;50.924;4.396;2022-08-19T11:26:08;6.05;;;3.58;;
19828;SDS011;10075;50.924;4.396;2022-08-19T11:28:35;5.47;;;3.30;;
19828;SDS011;10075;50.924;4.396;2022-08-19T11:31:03;3.80;;;3.08;;
19828;SDS011;10075;50.924;4.396;2022-08-19T11:33:35;5.28;;;3.72;;
19828;SDS011;10075;50.924;4.396;2022-08-19T11:36:02;5.20;;;3.58;;
19828;SDS011;10075;50.924;4.396;2022-08-19T11:38:29;4.45;;;3.60;;
19828;SDS011;10075;50.924;4.396;2022-08-19T11:40:56;5.05;;;3.63;;
19828;SDS011;10075;50.924;4.396;2022-08-19T11:43:26;9.27;;;4.07;;
19828;SDS011;10075;50.924;4.396;2022-08-19T11:45:54;6.00;;;4.40;;
19828;SDS011;10075;50.924;4.396;2022-08-19T11:48:21;7.30;;;3.83;;
19828;SDS011;10075;50.924;4.396;2022-08-19T11:50:49;5.72;;;3.97;;
19828;SDS011;10075;50.924;4.396;2022-08-19T11:53:17;6.97;;;3.85;;
19828;SDS011;10075;50.924;4.396;2022-08-19T11:55:45;6.47;;;4.10;;
19828;SDS011;10075;50.924;4.396;2022-08-19T11:58:12;6.30;;;5.65;;
19828;SDS011;10075;50.924;4.396;2022-08-19T12:00:42;6.60;;;5.65;;
19828;SDS011;10075;50.924;4.396;2022-08-19T12:03:10;6.95;;;5.60;;
19828;SDS011;10075;50.924;4.396;2022-08-19T12:05:38;9.82;;;6.93;;
19828;SDS011;10075;50.924;4.396;2022-08-19T12:08:07;7.90;;;6.93;;
19828;SDS011;10075;50.924;4.396;2022-08-19T12:10:34;8.75;;;4.97;;
19828;SDS011;10075;50.924;4.396;2022-08-19T12:13:02;8.98;;;7.05;;
19828;SDS011;10075;50.924;4.396;2022-08-19T12:15:29;6.05;;;5.10;;
19828;SDS011;10075;50.924;4.396;2022-08-19T12:17:57;8.85;;;6.38;;
19828;SDS011;10075;50.924;4.396;2022-08-19T12:20:24;8.32;;;5.72;;
19828;SDS011;10075;50.924;4.396;2022-08-19T12:22:51;7.13;;;6.00;;
19828;SDS011;10075;50.924;4.396;2022-08-19T12:25:18;6.65;;;5.35;;
19828;SDS011;10075;50.924;4.396;2022-08-19T12:27:46;6.32;;;4.85;;
19828;SDS011;10075;50.924;4.396;2022-08-19T12:30:14;6.13;;;4.68;;
19828;SDS011;10075;50.924;4.396;2022-08-19T12:32:42;6.38;;;4.93;;
19828;SDS011;10075;50.924;4.396;2022-08-19T12:35:10;9.00;;;5.22;;
19828;SDS011;10075;50.924;4.396;2022-08-19T12:37:37;6.68;;;4.68;;
19828;SDS011;10075;50.924;4.396;2022-08-19T12:40:09;9.18;;;3.97;;
19828;SDS011;10075;50.924;4.396;2022-08-19T12:42:37;6.15;;;4.28;;
19828;SDS011;10075;50.924;4.396;2022-08-19T12:45:06;6.82;;;4.20;;
19828;SDS011;10075;50.924;4.396;2022-08-19T12:47:34;5.60;;;4.13;;
19828;SDS011;10075;50.924;4.396;2022-08-19T12:50:01;5.93;;;3.63;;
19828;SDS011;10075;50.924;4.396;2022-08-19T12:52:30;6.47;;;3.88;;
19828;SDS011;10075;50.924;4.396;2022-08-19T12:54:57;4.53;;;3.58;;
19828;SDS011;10075;50.924;4.396;2022-08-19T12:57:26;3.97;;;3.28;;
19828;SDS011;10075;50.924;4.396;2022-08-19T12:59:54;3.67;;;3.10;;
19828;SDS011;10075;50.924;4.396;2022-08-19T13:02:22;5.38;;;2.97;;
19828;SDS011;10075;50.924;4.396;2022-08-19T13:04:49;5.75;;;2.40;;
19828;SDS011;10075;50.924;4.396;2022-08-19T13:07:16;3.60;;;2.30;;
19828;SDS011;10075;50.924;4.396;2022-08-19T13:09:44;3.22;;;1.88;;
19828;SDS011;10075;50.924;4.396;2022-08-19T13:12:11;3.15;;;2.33;;
19828;SDS011;10075;50.924;4.396;2022-08-19T13:14:38;2.40;;;1.70;;
19828;SDS011;10075;50.924;4.396;2022-08-19T13:17:06;2.58;;;2.00;;
19828;SDS011;10075;50.924;4.396;2022-08-19T13:19:35;2.38;;;2.17;;
19828;SDS011;10075;50.924;4.396;2022-08-19T13:22:05;6.78;;;2.00;;
19828;SDS011;10075;50.924;4.396;2022-08-19T13:24:31;3.47;;;1.65;;
19828;SDS011;10075;50.924;4.396;2022-08-19T13:27:00;3.10;;;2.28;;
19828;SDS011;10075;50.924;4.396;2022-08-19T13:29:27;4.35;;;2.42;;
19828;SDS011;10075;50.924;4.396;2022-08-19T13:32:12;3.17;;;2.00;;
19828;SDS011;10075;50.924;4.396;2022-08-19T13:34:56;1.70;;;1.60;;
19828;SDS011;10075;50.924;4.396;2022-08-19T13:37:23;5.43;;;2.00;;
19828;SDS011;10075;50.924;4.396;2022-08-19T13:40:05;2.42;;;1.50;;
19828;SDS011;10075;50.924;4.396;2022-08-19T13:42:39;2.92;;;2.17;;
19828;SDS011;10075;50.924;4.396;2022-08-19T13:45:06;2.22;;;1.60;;
19828;SDS011;10075;50.924;4.396;2022-08-19T13:47:34;4.70;;;1.80;;
19828;SDS011;10075;50.924;4.396;2022-08-19T13:50:09;2.80;;;1.90;;
19828;SDS011;10075;50.924;4.396;2022-08-19T13:52:37;5.18;;;1.52;;
19828;SDS011;10075;50.924;4.396;2022-08-19T13:55:04;1.98;;;1.60;;
19828;SDS011;10075;50.924;4.396;2022-08-19T13:57:32;4.18;;;1.70;;
19828;SDS011;10075;50.924;4.396;2022-08-19T14:00:02;3.10;;;1.13;;
19828;SDS011;10075;50.924;4.396;2022-08-19T14:02:30;3.35;;;1.10;;
19828;SDS011;10075;50.924;4.396;2022-08-19T14:04:57;2.60;;;0.93;;
19828;SDS011;10075;50.924;4.396;2022-08-19T14:07:25;2.70;;;1.00;;
19828;SDS011;10075;50.924;4.396;2022-08-19T14:09:52;2.83;;;1.10;;
19828;SDS011;10075;50.924;4.396;2022-08-19T14:12:19;2.33;;;1.17;;
19828;SDS011;10075;50.924;4.396;2022-08-19T14:14:46;2.70;;;1.10;;
19828;SDS011;10075;50.924;4.396;2022-08-19T14:17:15;2.70;;;1.60;;
19828;SDS011;10075;50.924;4.396;2022-08-19T14:19:42;3.63;;;2.03;;
19828;SDS011;10075;50.924;4.396;2022-08-19T14:22:09;7.15;;;2.28;;
19828;SDS011;10075;50.924;4.396;2022-08-19T14:24:36;3.92;;;2.53;;
19828;SDS011;10075;50.924;4.396;2022-08-19T14:27:04;4.50;;;2.38;;
19828;SDS011;10075;50.924;4.396;2022-08-19T14:29:32;2.85;;;1.50;;
19828;SDS011;10075;50.924;4.396;2022-08-19T14:31:59;3.72;;;1.70;;
19828;SDS011;10075;50.924;4.396;2022-08-19T14:34:28;6.85;;;2.65;;
19828;SDS011;10075;50.924;4.396;2022-08-19T14:36:56;5.45;;;1.67;;
19828;SDS011;10075;50.924;4.396;2022-08-19T14:39:23;5.88;;;2.53;;
19828;SDS011;10075;50.924;4.396;2022-08-19T14:41:50;5.43;;;1.30;;
19828;SDS011;10075;50.924;4.396;2022-08-19T14:44:18;6.28;;;1.35;;